createdAt,value
2022-09-30T00:00:51.027Z,9.09
2022-09-30T00:01:51.174Z,8.94
2022-09-30T00:02:51.053Z,8.99
2022-09-30T00:03:50.990Z,8.94
2022-09-30T00:04:50.981Z,8.99
2022-09-30T00:05:50.971Z,8.96
2022-09-30T00:06:50.972Z,8.86
2022-09-30T00:07:50.956Z,8.96
2022-09-30T00:08:50.931Z,8.96
2022-09-30T00:09:50.918Z,8.94
2022-09-30T00:10:50.906Z,8.96
2022-09-30T00:11:50.929Z,8.90
2022-09-30T00:12:50.884Z,8.94
2022-09-30T00:13:50.872Z,8.99
2022-09-30T00:14:50.871Z,8.90
2022-09-30T00:15:51.004Z,8.88
2022-09-30T00:16:50.853Z,8.94
2022-09-30T00:17:50.836Z,8.91
2022-09-30T00:18:50.823Z,8.90
2022-09-30T00:19:50.806Z,8.86
2022-09-30T00:20:50.794Z,8.87
2022-09-30T00:21:50.816Z,8.94
2022-09-30T00:22:50.783Z,8.87
2022-09-30T00:23:50.779Z,8.83
2022-09-30T00:24:50.749Z,8.75
2022-09-30T00:25:50.740Z,8.84
2022-09-30T00:26:50.733Z,8.81
2022-09-30T00:27:50.737Z,8.84
2022-09-30T00:28:50.711Z,8.88
2022-09-30T00:29:50.699Z,8.65
2022-09-30T00:30:50.681Z,8.76
2022-09-30T00:31:50.858Z,8.75
2022-09-30T00:32:50.670Z,8.68
2022-09-30T00:33:50.654Z,8.76
2022-09-30T00:34:50.642Z,8.62
2022-09-30T00:35:50.624Z,8.79
2022-09-30T00:36:50.615Z,8.55
2022-09-30T00:37:50.637Z,8.69
2022-09-30T00:38:50.597Z,8.62
2022-09-30T00:39:50.588Z,8.63
2022-09-30T00:40:50.574Z,8.62
2022-09-30T00:41:50.557Z,8.62
2022-09-30T00:42:50.568Z,8.58
2022-09-30T00:43:50.542Z,8.55
2022-09-30T00:44:50.530Z,8.62
2022-09-30T00:45:50.519Z,8.47
2022-09-30T00:46:50.688Z,8.44
2022-09-30T00:47:50.528Z,8.62
2022-09-30T00:48:50.481Z,8.54
2022-09-30T00:49:50.472Z,8.45
2022-09-30T00:50:50.461Z,8.51
2022-09-30T00:51:50.458Z,8.40
2022-09-30T00:52:50.451Z,8.45
2022-09-30T00:53:50.422Z,8.42
2022-09-30T00:54:50.414Z,8.37
2022-09-30T00:55:50.407Z,8.35
2022-09-30T00:56:50.386Z,8.36
2022-09-30T00:57:50.393Z,8.29
2022-09-30T00:58:50.368Z,8.29
2022-09-30T00:59:50.357Z,8.44
2022-09-30T01:00:50.416Z,8.26
2022-09-30T01:01:50.402Z,8.36
2022-09-30T01:02:50.314Z,8.36
2022-09-30T01:03:50.380Z,8.20
2022-09-30T01:04:50.318Z,8.30
2022-09-30T01:05:50.298Z,8.32
2022-09-30T01:06:50.282Z,8.28
2022-09-30T01:07:50.310Z,8.18
2022-09-30T01:08:50.281Z,8.28
2022-09-30T01:09:50.309Z,8.15
2022-09-30T01:10:50.234Z,8.21
2022-09-30T01:11:50.215Z,8.14
2022-09-30T01:12:50.204Z,8.26
2022-09-30T01:13:50.207Z,8.12
2022-09-30T01:14:50.187Z,8.12
2022-09-30T01:15:50.205Z,8.22
2022-09-30T01:16:50.157Z,8.15
2022-09-30T01:17:50.161Z,8.15
2022-09-30T01:18:50.148Z,8.22
2022-09-30T01:19:50.151Z,8.17
2022-09-30T01:20:50.119Z,8.15
2022-09-30T01:21:50.099Z,8.15
2022-09-30T01:22:50.095Z,8.11
2022-09-30T01:23:50.095Z,8.04
2022-09-30T01:24:50.075Z,8.10
2022-09-30T01:25:50.073Z,8.03
2022-09-30T01:26:50.043Z,8.03
2022-09-30T01:27:50.042Z,8.07
2022-09-30T01:28:50.127Z,8.04
2022-09-30T01:29:50.020Z,8.04
2022-09-30T01:30:50.048Z,8.02
2022-09-30T01:31:50.090Z,7.93
2022-09-30T01:32:49.975Z,8.02
2022-09-30T01:33:49.971Z,8.02
2022-09-30T01:34:49.967Z,7.94
2022-09-30T01:35:49.964Z,8.02
2022-09-30T01:36:49.930Z,8.03
2022-09-30T01:37:49.919Z,8.02
2022-09-30T01:38:49.919Z,8.10
2022-09-30T01:39:49.921Z,8.03
2022-09-30T01:40:49.884Z,7.96
2022-09-30T01:41:49.885Z,8.07
2022-09-30T01:42:49.865Z,7.97
2022-09-30T01:43:49.854Z,7.93
2022-09-30T01:44:49.859Z,7.93
2022-09-30T01:45:49.832Z,7.84
2022-09-30T01:46:49.880Z,7.85
2022-09-30T01:47:49.810Z,7.84
2022-09-30T01:48:49.802Z,7.82
2022-09-30T01:49:49.807Z,7.82
2022-09-30T01:50:49.771Z,7.85
2022-09-30T01:51:49.781Z,7.87
2022-09-30T01:52:49.753Z,7.78
2022-09-30T01:53:49.744Z,7.77
2022-09-30T01:54:49.745Z,7.78
2022-09-30T01:55:49.736Z,7.89
2022-09-30T01:56:50.290Z,7.71
2022-09-30T01:57:49.694Z,7.78
2022-09-30T01:58:49.682Z,7.78
2022-09-30T01:59:49.687Z,7.78
2022-09-30T02:00:49.747Z,7.79
2022-09-30T02:01:49.723Z,7.79
2022-09-30T02:02:49.640Z,7.81
2022-09-30T02:03:49.622Z,7.74
2022-09-30T02:04:49.638Z,7.75
2022-09-30T02:05:49.611Z,7.71
2022-09-30T02:06:49.594Z,7.63
2022-09-30T02:07:49.600Z,7.66
2022-09-30T02:08:49.577Z,7.62
2022-09-30T02:09:49.667Z,7.58
2022-09-30T02:10:49.542Z,7.59
2022-09-30T02:11:49.531Z,7.59
2022-09-30T02:12:49.520Z,7.66
2022-09-30T02:13:49.515Z,7.67
2022-09-30T02:14:49.527Z,7.56
2022-09-30T02:15:49.532Z,7.55
2022-09-30T02:16:49.482Z,7.56
2022-09-30T02:17:49.463Z,7.58
2022-09-30T02:18:49.453Z,7.52
2022-09-30T02:19:49.472Z,7.47
2022-09-30T02:20:49.434Z,7.53
2022-09-30T02:21:49.418Z,7.44
2022-09-30T02:22:49.453Z,7.53
2022-09-30T02:23:49.425Z,7.58
2022-09-30T02:24:49.406Z,7.49
2022-09-30T02:25:49.380Z,7.38
2022-09-30T02:26:49.361Z,7.40
2022-09-30T02:27:49.357Z,7.38
2022-09-30T02:28:49.350Z,7.41
2022-09-30T02:29:49.393Z,7.38
2022-09-30T02:30:49.317Z,7.40
2022-09-30T02:31:49.341Z,7.37
2022-09-30T02:32:49.303Z,7.34
2022-09-30T02:33:49.281Z,7.31
2022-09-30T02:34:49.284Z,7.42
2022-09-30T02:35:49.270Z,7.41
2022-09-30T02:36:49.265Z,7.40
2022-09-30T02:37:49.246Z,7.38
2022-09-30T02:38:49.228Z,7.37
2022-09-30T02:39:49.251Z,7.42
2022-09-30T02:40:49.203Z,7.38
2022-09-30T02:41:49.202Z,7.32
2022-09-30T02:42:49.190Z,7.40
2022-09-30T02:43:49.177Z,7.31
2022-09-30T02:44:49.194Z,7.31
2022-09-30T02:45:49.148Z,7.34
2022-09-30T02:46:49.226Z,7.22
2022-09-30T02:47:49.130Z,7.31
2022-09-30T02:48:49.112Z,7.27
2022-09-30T02:49:49.145Z,7.32
2022-09-30T02:50:49.089Z,7.38
2022-09-30T02:51:49.085Z,7.32
2022-09-30T02:52:49.080Z,7.34
2022-09-30T02:53:49.064Z,7.35
2022-09-30T02:54:49.065Z,7.29
2022-09-30T02:55:49.052Z,7.32
2022-09-30T02:56:49.034Z,7.27
2022-09-30T02:57:49.010Z,7.35
2022-09-30T02:58:49.013Z,7.31
2022-09-30T02:59:49.014Z,7.26
2022-09-30T03:00:49.116Z,7.34
2022-09-30T03:01:49.036Z,7.35
2022-09-30T03:02:48.963Z,7.27
2022-09-30T03:03:48.954Z,7.32
2022-09-30T03:04:48.931Z,7.27
2022-09-30T03:05:48.931Z,7.26
2022-09-30T03:06:48.922Z,7.29
2022-09-30T03:07:48.902Z,7.20
2022-09-30T03:08:48.887Z,7.22
2022-09-30T03:09:48.967Z,7.26
2022-09-30T03:10:48.889Z,7.31
2022-09-30T03:11:48.883Z,7.24
2022-09-30T03:12:48.846Z,7.20
2022-09-30T03:13:48.837Z,7.23
2022-09-30T03:14:48.817Z,7.23
2022-09-30T03:15:48.867Z,7.23
2022-09-30T03:16:48.803Z,7.23
2022-09-30T03:17:48.791Z,7.24
2022-09-30T03:18:48.773Z,7.19
2022-09-30T03:19:48.760Z,7.24
2022-09-30T03:20:48.768Z,7.27
2022-09-30T03:21:48.742Z,7.24
2022-09-30T03:22:48.736Z,7.22
2022-09-30T03:23:48.728Z,7.29
2022-09-30T03:24:48.711Z,7.19
2022-09-30T03:25:48.713Z,7.24
2022-09-30T03:26:48.689Z,7.20
2022-09-30T03:27:48.697Z,7.13
2022-09-30T03:28:48.664Z,7.15
2022-09-30T03:29:48.654Z,7.19
2022-09-30T03:30:48.654Z,7.26
2022-09-30T03:31:48.685Z,7.17
2022-09-30T03:32:48.614Z,7.12
2022-09-30T03:33:48.601Z,7.13
2022-09-30T03:34:48.611Z,7.17
2022-09-30T03:35:48.596Z,7.13
2022-09-30T03:36:48.575Z,7.04
2022-09-30T03:37:48.564Z,7.08
2022-09-30T03:38:48.545Z,7.09
2022-09-30T03:39:48.537Z,7.15
2022-09-30T03:40:48.560Z,7.01
2022-09-30T03:41:48.517Z,7.05
2022-09-30T03:42:48.506Z,6.98
2022-09-30T03:43:48.557Z,6.98
2022-09-30T03:44:48.485Z,7.07
2022-09-30T03:45:48.482Z,6.99
2022-09-30T03:46:48.525Z,6.99
2022-09-30T03:47:48.449Z,6.91
2022-09-30T03:48:48.433Z,6.97
2022-09-30T03:49:48.425Z,7.04
2022-09-30T03:50:48.431Z,7.04
2022-09-30T03:51:50.926Z,7.01
2022-09-30T03:52:48.389Z,6.97
2022-09-30T03:53:48.375Z,6.90
2022-09-30T03:54:48.372Z,7.01
2022-09-30T03:55:48.383Z,6.91
2022-09-30T03:56:48.344Z,6.97
2022-09-30T03:57:48.335Z,7.07
2022-09-30T03:58:48.325Z,7.08
2022-09-30T03:59:48.331Z,7.01
2022-09-30T04:00:48.406Z,7.02
2022-09-30T04:01:48.351Z,7.05
2022-09-30T04:02:48.275Z,6.77
2022-09-30T04:03:48.261Z,6.94
2022-09-30T04:04:48.257Z,6.90
2022-09-30T04:05:48.259Z,6.94
2022-09-30T04:06:48.233Z,6.89
2022-09-30T04:07:48.214Z,6.87
2022-09-30T04:08:48.205Z,6.90
2022-09-30T04:09:48.334Z,6.95
2022-09-30T04:10:48.197Z,6.91
2022-09-30T04:11:48.169Z,6.76
2022-09-30T04:12:48.162Z,6.81
2022-09-30T04:13:48.148Z,6.84
2022-09-30T04:14:48.144Z,6.86
2022-09-30T04:15:48.156Z,6.98
2022-09-30T04:16:51.901Z,6.81
2022-09-30T04:17:49.115Z,6.81
2022-09-30T04:18:48.089Z,6.80
2022-09-30T04:19:48.082Z,6.87
2022-09-30T04:20:48.095Z,6.89
2022-09-30T04:21:48.057Z,6.81
2022-09-30T04:22:48.055Z,6.79
2022-09-30T04:23:48.038Z,6.89
2022-09-30T04:24:48.034Z,6.87
2022-09-30T04:25:48.034Z,6.89
2022-09-30T04:26:48.000Z,6.84
2022-09-30T04:27:47.997Z,6.84
2022-09-30T04:28:47.978Z,6.73
2022-09-30T04:29:47.973Z,6.76
2022-09-30T04:30:47.964Z,6.84
2022-09-30T04:31:48.065Z,6.65
2022-09-30T04:32:47.933Z,6.68
2022-09-30T04:33:47.941Z,6.79
2022-09-30T04:34:47.919Z,6.71
2022-09-30T04:35:47.906Z,6.58
2022-09-30T04:36:47.912Z,6.66
2022-09-30T04:37:47.881Z,6.76
2022-09-30T04:38:47.866Z,6.61
2022-09-30T04:39:47.875Z,6.71
2022-09-30T04:40:47.861Z,6.73
2022-09-30T04:41:47.849Z,6.69
2022-09-30T04:42:47.826Z,6.66
2022-09-30T04:43:47.807Z,6.73
2022-09-30T04:44:47.806Z,6.76
2022-09-30T04:45:47.811Z,6.69
2022-09-30T04:46:47.815Z,6.68
2022-09-30T04:47:47.788Z,6.66
2022-09-30T04:48:47.749Z,6.62
2022-09-30T04:49:47.740Z,6.61
2022-09-30T04:50:47.736Z,6.71
2022-09-30T04:51:47.729Z,6.68
2022-09-30T04:52:47.712Z,6.68
2022-09-30T04:53:47.707Z,6.72
2022-09-30T04:54:47.705Z,6.73
2022-09-30T04:55:47.677Z,6.69
2022-09-30T04:56:47.675Z,6.71
2022-09-30T04:57:47.695Z,6.77
2022-09-30T04:58:47.636Z,6.77
2022-09-30T04:59:47.694Z,6.73
2022-09-30T05:00:47.702Z,6.56
2022-09-30T05:01:47.764Z,6.65
2022-09-30T05:02:47.628Z,6.65
2022-09-30T05:03:47.613Z,6.72
2022-09-30T05:04:47.570Z,6.68
2022-09-30T05:05:47.563Z,6.68
2022-09-30T05:06:47.549Z,6.80
2022-09-30T05:07:47.553Z,6.58
2022-09-30T05:08:47.533Z,6.65
2022-09-30T05:09:47.543Z,6.65
2022-09-30T05:10:47.503Z,6.61
2022-09-30T05:11:47.497Z,6.61
2022-09-30T05:12:47.514Z,6.47
2022-09-30T05:13:47.474Z,6.56
2022-09-30T05:14:47.465Z,6.65
2022-09-30T05:15:47.491Z,6.48
2022-09-30T05:16:47.467Z,6.59
2022-09-30T05:17:47.443Z,6.54
2022-09-30T05:18:47.425Z,6.46
2022-09-30T05:19:47.548Z,6.50
2022-09-30T05:20:47.403Z,6.53
2022-09-30T05:21:47.383Z,6.50
2022-09-30T05:22:47.388Z,6.46
2022-09-30T05:23:47.354Z,6.53
2022-09-30T05:24:47.362Z,6.46
2022-09-30T05:25:47.333Z,6.50
2022-09-30T05:26:47.338Z,6.51
2022-09-30T05:27:47.330Z,6.33
2022-09-30T05:28:47.304Z,6.40
2022-09-30T05:29:47.295Z,6.41
2022-09-30T05:30:47.282Z,6.41
2022-09-30T05:31:47.372Z,6.47
2022-09-30T05:32:47.273Z,6.38
2022-09-30T05:33:47.250Z,6.40
2022-09-30T05:34:47.236Z,6.32
2022-09-30T05:35:47.263Z,6.46
2022-09-30T05:36:47.209Z,6.35
2022-09-30T05:37:47.204Z,6.32
2022-09-30T05:38:47.193Z,6.43
2022-09-30T05:39:47.179Z,6.30
2022-09-30T05:40:47.171Z,6.29
2022-09-30T05:41:47.151Z,6.43
2022-09-30T05:42:47.163Z,6.33
2022-09-30T05:43:47.138Z,6.32
2022-09-30T05:44:47.123Z,6.35
2022-09-30T05:45:47.111Z,6.30
2022-09-30T05:46:47.130Z,6.33
2022-09-30T05:47:47.106Z,6.26
2022-09-30T05:48:47.072Z,6.35
2022-09-30T05:49:47.078Z,6.32
2022-09-30T05:50:47.054Z,6.33
2022-09-30T05:51:47.055Z,6.33
2022-09-30T05:52:47.057Z,6.40
2022-09-30T05:53:47.043Z,6.35
2022-09-30T05:54:47.011Z,6.46
2022-09-30T05:55:46.990Z,6.40
2022-09-30T05:56:46.984Z,6.43
2022-09-30T05:57:46.992Z,6.46
2022-09-30T05:58:46.971Z,6.41
2022-09-30T05:59:46.947Z,6.43
2022-09-30T06:00:46.942Z,6.50
2022-09-30T06:01:47.059Z,6.46
2022-09-30T06:02:47.013Z,6.36
2022-09-30T06:03:46.911Z,6.41
2022-09-30T06:04:46.896Z,6.47
2022-09-30T06:05:46.888Z,6.50
2022-09-30T06:06:46.875Z,6.51
2022-09-30T06:07:47.020Z,6.50
2022-09-30T06:08:46.846Z,6.43
2022-09-30T06:09:46.914Z,6.51
2022-09-30T06:10:46.828Z,6.47
2022-09-30T06:11:46.807Z,6.54
2022-09-30T06:12:46.815Z,6.58
2022-09-30T06:13:46.792Z,6.58
2022-09-30T06:14:46.784Z,6.56
2022-09-30T06:15:46.766Z,6.54
2022-09-30T06:16:46.836Z,6.65
2022-09-30T06:17:46.757Z,6.58
2022-09-30T06:18:46.736Z,6.72
2022-09-30T06:19:46.739Z,6.63
2022-09-30T06:20:46.731Z,6.63
2022-09-30T06:21:46.702Z,6.59
2022-09-30T06:22:46.704Z,6.76
2022-09-30T06:23:46.690Z,6.71
2022-09-30T06:24:47.983Z,6.69
2022-09-30T06:25:46.650Z,6.77
2022-09-30T06:26:46.638Z,6.71
2022-09-30T06:27:46.654Z,6.72
2022-09-30T06:28:46.622Z,6.76
2022-09-30T06:29:46.623Z,6.84
2022-09-30T06:30:46.593Z,6.71
2022-09-30T06:31:46.651Z,6.68
2022-09-30T06:32:46.616Z,6.87
2022-09-30T06:33:46.581Z,6.76
2022-09-30T06:34:46.562Z,6.77
2022-09-30T06:35:46.537Z,6.81
2022-09-30T06:36:46.523Z,6.84
2022-09-30T06:37:46.538Z,6.84
2022-09-30T06:38:46.506Z,6.83
2022-09-30T06:39:46.513Z,6.80
2022-09-30T06:40:46.492Z,6.81
2022-09-30T06:41:46.475Z,6.81
2022-09-30T06:42:46.473Z,6.84
2022-09-30T06:43:54.969Z,6.91
2022-09-30T06:44:52.851Z,6.79
2022-09-30T06:45:47.500Z,6.83
2022-09-30T06:46:53.684Z,6.91
2022-09-30T06:47:57.944Z,7.02
2022-09-30T06:48:47.404Z,7.01
2022-09-30T06:49:49.854Z,7.04
2022-09-30T06:50:57.211Z,6.87
2022-09-30T06:51:47.368Z,7.17
2022-09-30T06:52:46.362Z,6.97
2022-09-30T06:53:49.000Z,6.98
2022-09-30T06:54:47.333Z,7.19
2022-09-30T06:55:46.345Z,7.07
2022-09-30T06:56:46.304Z,7.05
2022-09-30T06:57:46.305Z,7.16
2022-09-30T06:58:46.276Z,7.08
2022-09-30T06:59:46.278Z,7.16
2022-09-30T07:00:46.325Z,7.16
2022-09-30T07:01:46.391Z,7.16
2022-09-30T07:02:46.261Z,7.20
2022-09-30T07:03:46.218Z,7.32
2022-09-30T07:04:46.213Z,7.38
2022-09-30T07:05:46.202Z,7.29
2022-09-30T07:06:46.199Z,7.31
2022-09-30T07:07:46.175Z,7.31
2022-09-30T07:08:46.180Z,7.45
2022-09-30T07:09:46.223Z,7.42
2022-09-30T07:10:46.136Z,7.53
2022-09-30T07:11:46.155Z,7.50
2022-09-30T07:12:46.114Z,7.50
2022-09-30T07:13:46.118Z,7.49
2022-09-30T07:14:46.097Z,7.58
2022-09-30T07:15:46.080Z,7.58
2022-09-30T07:16:46.105Z,7.47
2022-09-30T07:17:46.065Z,7.45
2022-09-30T07:18:46.062Z,7.44
2022-09-30T07:19:46.044Z,7.41
2022-09-30T07:20:46.030Z,7.40
2022-09-30T07:21:46.020Z,7.56
2022-09-30T07:22:46.004Z,7.50
2022-09-30T07:23:46.023Z,7.53
2022-09-30T07:24:46.029Z,7.42
2022-09-30T07:25:45.973Z,7.58
2022-09-30T07:26:45.954Z,7.67
2022-09-30T07:27:45.964Z,7.58
2022-09-30T07:28:45.931Z,7.56
2022-09-30T07:30:07.812Z,7.79
2022-09-30T07:30:46.910Z,7.77
2022-09-30T07:31:45.961Z,7.84
2022-09-30T07:32:45.886Z,7.81
2022-09-30T07:33:45.944Z,7.87
2022-09-30T07:34:45.906Z,7.79
2022-09-30T07:35:45.861Z,7.81
2022-09-30T07:36:45.868Z,7.89
2022-09-30T07:37:45.838Z,7.78
2022-09-30T07:38:45.863Z,7.89
2022-09-30T07:39:45.810Z,7.84
2022-09-30T07:40:46.410Z,7.87
2022-09-30T07:41:45.801Z,8.02
2022-09-30T07:42:46.221Z,7.92
2022-09-30T07:43:45.798Z,8.00
2022-09-30T07:44:45.760Z,7.93
2022-09-30T07:45:45.817Z,8.10
2022-09-30T07:46:45.734Z,8.03
2022-09-30T07:47:49.665Z,8.21
2022-09-30T07:48:46.722Z,8.12
2022-09-30T07:49:45.702Z,8.15
2022-09-30T07:50:45.688Z,8.25
2022-09-30T07:51:45.867Z,8.29
2022-09-30T07:52:45.657Z,8.18
2022-09-30T07:53:45.661Z,8.22
2022-09-30T07:54:50.430Z,8.20
2022-09-30T07:55:46.633Z,8.28
2022-09-30T07:57:11.838Z,8.17
2022-09-30T07:57:46.604Z,8.21
2022-09-30T07:58:45.624Z,8.21
2022-09-30T07:59:45.603Z,8.42
2022-09-30T08:00:45.576Z,8.35
2022-09-30T08:01:45.558Z,8.28
2022-09-30T08:02:45.624Z,8.29
2022-09-30T08:03:45.554Z,8.36
2022-09-30T08:04:45.574Z,8.30
2022-09-30T08:05:45.518Z,8.35
2022-09-30T08:06:45.504Z,8.44
2022-09-30T08:07:45.497Z,8.48
2022-09-30T08:08:45.495Z,8.62
2022-09-30T08:09:45.529Z,8.57
2022-09-30T08:10:45.469Z,8.75
2022-09-30T08:11:45.453Z,8.71
2022-09-30T08:12:45.440Z,8.73
2022-09-30T08:13:45.449Z,8.73
2022-09-30T08:14:45.436Z,8.79
2022-09-30T08:15:45.441Z,8.86
2022-09-30T08:16:45.467Z,8.91
2022-09-30T08:17:45.381Z,8.97
2022-09-30T08:18:45.391Z,9.09
2022-09-30T08:19:45.354Z,9.05
2022-09-30T08:20:45.344Z,9.15
2022-09-30T08:21:45.425Z,9.24
2022-09-30T08:22:45.323Z,9.31
2022-09-30T08:23:45.332Z,9.35
2022-09-30T08:24:45.302Z,9.40
2022-09-30T08:25:45.287Z,9.45
2022-09-30T08:26:45.345Z,9.46
2022-09-30T08:27:45.283Z,9.60
2022-09-30T08:28:45.271Z,9.73
2022-09-30T08:30:05.505Z,9.82
2022-09-30T08:30:46.243Z,9.89
2022-09-30T08:31:45.339Z,10.06
2022-09-30T08:32:45.211Z,10.01
2022-09-30T08:33:45.208Z,10.10
2022-09-30T08:34:45.199Z,10.06
2022-09-30T08:35:45.180Z,10.07
2022-09-30T08:36:45.166Z,10.07
2022-09-30T08:37:45.157Z,10.18
2022-09-30T08:38:45.159Z,10.25
2022-09-30T08:39:45.132Z,10.30
2022-09-30T08:40:45.190Z,10.46
2022-09-30T08:41:45.103Z,10.51
2022-09-30T08:42:51.470Z,10.58
2022-09-30T08:43:46.098Z,10.71
2022-09-30T08:44:45.074Z,10.89
2022-09-30T08:45:45.143Z,10.94
2022-09-30T08:46:45.045Z,11.11
2022-09-30T08:47:45.057Z,11.14
2022-09-30T08:48:45.037Z,11.21
2022-09-30T08:49:45.051Z,11.24
2022-09-30T08:50:45.133Z,11.36
2022-09-30T08:51:45.001Z,11.44
2022-09-30T08:52:49.168Z,11.64
2022-09-30T08:53:45.000Z,11.64
2022-09-30T08:54:44.952Z,11.80
2022-09-30T08:55:44.958Z,11.94
2022-09-30T08:56:44.935Z,12.08
2022-09-30T08:57:47.429Z,12.19
2022-09-30T08:58:44.931Z,12.16
2022-09-30T08:59:44.903Z,12.37
2022-09-30T09:00:44.930Z,12.44
2022-09-30T09:01:44.890Z,12.66
2022-09-30T09:02:44.927Z,12.82
2022-09-30T09:03:44.973Z,12.89
2022-09-30T09:04:44.841Z,12.97
2022-09-30T09:05:48.564Z,13.18
2022-09-30T09:06:45.831Z,13.11
2022-09-30T09:07:44.818Z,13.37
2022-09-30T09:08:44.802Z,13.46
2022-09-30T09:09:44.812Z,13.63
2022-09-30T09:10:44.775Z,13.92
2022-09-30T09:11:44.762Z,13.95
2022-09-30T09:12:44.773Z,14.06
2022-09-30T09:13:44.754Z,14.16
2022-09-30T09:14:44.739Z,14.12
2022-09-30T09:15:44.719Z,14.10
2022-09-30T09:16:44.793Z,14.20
2022-09-30T09:18:04.265Z,14.21
2022-09-30T09:18:45.687Z,14.32
2022-09-30T09:19:44.702Z,14.49
2022-09-30T09:20:44.666Z,14.62
2022-09-30T09:21:44.654Z,14.75
2022-09-30T09:22:44.642Z,14.75
2022-09-30T09:23:44.643Z,14.72
2022-09-30T09:24:44.709Z,15.01
2022-09-30T09:25:44.620Z,15.06
2022-09-30T09:26:44.589Z,15.08
2022-09-30T09:27:44.609Z,15.24
2022-09-30T09:28:44.575Z,15.21
2022-09-30T09:29:44.580Z,15.52
2022-09-30T09:30:44.558Z,15.57
2022-09-30T09:31:44.619Z,15.76
2022-09-30T09:32:44.524Z,15.60
2022-09-30T09:33:44.519Z,15.74
2022-09-30T09:34:44.522Z,15.79
2022-09-30T09:35:44.556Z,15.76
2022-09-30T09:36:44.484Z,15.78
2022-09-30T09:37:44.466Z,15.94
2022-09-30T09:38:44.462Z,16.11
2022-09-30T09:39:44.485Z,16.27
2022-09-30T09:40:44.434Z,16.53
2022-09-30T09:41:44.431Z,16.70
2022-09-30T09:42:44.468Z,16.99
2022-09-30T09:43:44.408Z,17.20
2022-09-30T09:44:44.403Z,17.35
2022-09-30T09:45:44.435Z,17.71
2022-09-30T09:46:44.369Z,17.95
2022-09-30T09:47:44.390Z,18.03
2022-09-30T09:48:44.347Z,18.40
2022-09-30T09:49:44.341Z,18.54
2022-09-30T09:50:44.317Z,18.57
2022-09-30T09:51:44.329Z,18.29
2022-09-30T09:52:44.307Z,17.99
2022-09-30T09:53:44.285Z,17.97
2022-09-30T09:54:44.287Z,18.04
2022-09-30T09:55:44.271Z,18.19
2022-09-30T09:56:44.276Z,18.25
2022-09-30T09:57:44.270Z,18.29
2022-09-30T09:58:44.262Z,18.34
2022-09-30T09:59:44.238Z,17.94
2022-09-30T10:00:44.252Z,17.99
2022-09-30T10:01:44.352Z,17.94
2022-09-30T10:02:44.190Z,18.09
2022-09-30T10:03:44.176Z,18.18
2022-09-30T10:04:44.175Z,18.29
2022-09-30T10:05:44.158Z,18.43
2022-09-30T10:06:44.146Z,18.61
2022-09-30T10:07:44.152Z,18.57
2022-09-30T10:08:44.117Z,18.67
2022-09-30T10:09:44.130Z,18.49
2022-09-30T10:10:44.094Z,18.43
2022-09-30T10:11:44.086Z,18.44
2022-09-30T10:12:44.077Z,18.54
2022-09-30T10:13:44.078Z,18.52
2022-09-30T10:14:44.083Z,18.44
2022-09-30T10:15:44.067Z,18.49
2022-09-30T10:16:44.034Z,18.52
2022-09-30T10:17:44.028Z,18.52
2022-09-30T10:18:44.007Z,18.40
2022-09-30T10:19:43.999Z,18.33
2022-09-30T10:20:44.099Z,18.44
2022-09-30T10:21:43.985Z,18.55
2022-09-30T10:22:43.957Z,18.61
2022-09-30T10:23:43.967Z,18.86
2022-09-30T10:24:43.948Z,19.02
2022-09-30T10:25:43.943Z,19.15
2022-09-30T10:26:47.721Z,19.20
2022-09-30T10:27:44.961Z,19.38
2022-09-30T10:28:43.892Z,19.42
2022-09-30T10:29:43.885Z,19.43
2022-09-30T10:30:43.884Z,19.75
2022-09-30T10:31:43.940Z,19.65
2022-09-30T10:32:43.849Z,19.58
2022-09-30T10:33:43.839Z,19.65
2022-09-30T10:34:43.828Z,19.75
2022-09-30T10:35:43.840Z,19.93
2022-09-30T10:36:43.804Z,20.20
2022-09-30T10:37:44.577Z,20.28
2022-09-30T10:38:43.794Z,20.31
2022-09-30T10:39:43.801Z,20.34
2022-09-30T10:40:43.782Z,20.62
2022-09-30T10:41:43.745Z,20.77
2022-09-30T10:42:43.733Z,20.98
2022-09-30T10:43:43.729Z,21.21
2022-09-30T10:44:43.720Z,21.23
2022-09-30T10:45:49.409Z,20.96
2022-09-30T10:46:44.933Z,20.96
2022-09-30T10:47:43.689Z,21.04
2022-09-30T10:48:43.676Z,21.08
2022-09-30T10:49:43.665Z,20.89
2022-09-30T10:50:43.661Z,20.90
2022-09-30T10:51:43.645Z,20.80
2022-09-30T10:52:43.625Z,20.91
2022-09-30T10:53:43.617Z,20.81
2022-09-30T10:54:43.611Z,20.80
2022-09-30T10:55:43.666Z,21.06
2022-09-30T10:56:43.591Z,21.14
2022-09-30T10:57:43.577Z,21.23
2022-09-30T10:58:43.730Z,21.26
2022-09-30T10:59:43.584Z,21.17
2022-09-30T11:00:43.611Z,21.36
2022-09-30T11:01:43.635Z,21.44
2022-09-30T11:02:43.638Z,21.53
2022-09-30T11:03:43.584Z,21.51
2022-09-30T11:04:43.498Z,21.56
2022-09-30T11:05:43.516Z,21.42
2022-09-30T11:06:43.491Z,21.45
2022-09-30T11:07:43.479Z,21.29
2022-09-30T11:08:43.456Z,21.36
2022-09-30T11:09:43.442Z,21.46
2022-09-30T11:10:43.447Z,21.54
2022-09-30T11:11:43.571Z,21.67
2022-09-30T11:12:43.401Z,21.88
2022-09-30T11:13:43.397Z,21.90
2022-09-30T11:14:43.387Z,21.88
2022-09-30T11:15:43.390Z,21.97
2022-09-30T11:16:43.417Z,22.07
2022-09-30T11:17:43.352Z,22.10
2022-09-30T11:18:43.345Z,22.12
2022-09-30T11:19:43.333Z,22.12
2022-09-30T11:20:43.335Z,22.28
2022-09-30T11:21:43.308Z,22.31
2022-09-30T11:22:43.292Z,22.34
2022-09-30T11:23:43.293Z,22.46
2022-09-30T11:24:43.274Z,22.47
2022-09-30T11:25:43.272Z,22.56
2022-09-30T11:26:43.245Z,22.49
2022-09-30T11:27:43.391Z,22.37
2022-09-30T11:28:43.233Z,22.38
2022-09-30T11:29:43.218Z,22.27
2022-09-30T11:30:43.246Z,22.12
2022-09-30T11:31:43.274Z,21.97
2022-09-30T11:32:43.182Z,21.79
2022-09-30T11:33:43.171Z,21.38
2022-09-30T11:34:43.161Z,21.42
2022-09-30T11:35:43.156Z,21.51
2022-09-30T11:36:43.243Z,21.60
2022-09-30T11:37:43.123Z,21.83
2022-09-30T11:38:43.983Z,22.14
2022-09-30T11:39:43.110Z,22.32
2022-09-30T11:40:43.106Z,22.56
2022-09-30T11:41:43.085Z,22.94
2022-09-30T11:42:43.078Z,23.17
2022-09-30T11:43:43.095Z,23.46
2022-09-30T11:44:43.046Z,23.65
2022-09-30T11:45:43.097Z,23.80
2022-09-30T11:46:43.026Z,23.87
2022-09-30T11:47:43.011Z,23.85
2022-09-30T11:48:43.004Z,23.79
2022-09-30T11:49:42.989Z,23.60
2022-09-30T11:50:42.996Z,23.40
2022-09-30T11:51:42.977Z,23.42
2022-09-30T11:52:42.976Z,23.35
2022-09-30T11:53:42.974Z,23.46
2022-09-30T11:54:42.944Z,23.31
2022-09-30T11:55:42.942Z,22.89
2022-09-30T11:56:42.921Z,22.72
2022-09-30T11:57:42.907Z,22.65
2022-09-30T11:58:42.892Z,22.80
2022-09-30T11:59:42.899Z,22.99
2022-09-30T12:00:46.980Z,23.08
2022-09-30T12:01:42.895Z,22.83
2022-09-30T12:02:42.919Z,22.84
2022-09-30T12:03:42.837Z,22.93
2022-09-30T12:04:42.827Z,22.80
2022-09-30T12:05:42.858Z,22.52
2022-09-30T12:06:42.812Z,22.31
2022-09-30T12:07:42.793Z,22.38
2022-09-30T12:08:42.788Z,22.56
2022-09-30T12:09:42.775Z,22.75
2022-09-30T12:10:42.783Z,22.96
2022-09-30T12:11:42.761Z,23.24
2022-09-30T12:12:42.740Z,23.27
2022-09-30T12:13:42.727Z,23.17
2022-09-30T12:14:42.725Z,23.11
2022-09-30T12:15:42.750Z,23.12
2022-09-30T12:16:42.753Z,23.04
2022-09-30T12:17:42.680Z,22.97
2022-09-30T12:18:42.685Z,22.93
2022-09-30T12:19:42.668Z,22.74
2022-09-30T12:20:42.669Z,22.68
2022-09-30T12:21:42.652Z,22.53
2022-09-30T12:22:42.632Z,22.35
2022-09-30T12:23:42.617Z,22.10
2022-09-30T12:24:42.621Z,21.82
2022-09-30T12:25:42.608Z,21.63
2022-09-30T12:26:42.581Z,21.44
2022-09-30T12:27:42.649Z,21.50
2022-09-30T12:28:42.568Z,21.76
2022-09-30T12:29:42.554Z,21.97
2022-09-30T12:30:42.569Z,22.01
2022-09-30T12:31:42.592Z,21.99
2022-09-30T12:32:42.524Z,21.83
2022-09-30T12:33:42.513Z,21.51
2022-09-30T12:34:42.496Z,21.48
2022-09-30T12:35:42.503Z,21.46
2022-09-30T12:36:42.480Z,21.56
2022-09-30T12:37:42.460Z,21.75
2022-09-30T12:38:42.447Z,21.95
2022-09-30T12:39:42.445Z,21.92
2022-09-30T12:40:42.424Z,21.79
2022-09-30T12:41:42.426Z,21.81
2022-09-30T12:42:42.403Z,21.66
2022-09-30T12:43:42.403Z,21.66
2022-09-30T12:44:42.380Z,21.83
2022-09-30T12:45:42.442Z,21.99
2022-09-30T12:46:42.378Z,22.29
2022-09-30T12:47:42.377Z,22.39
2022-09-30T12:48:42.352Z,22.69
2022-09-30T12:49:42.344Z,22.77
2022-09-30T12:50:42.328Z,23.02
2022-09-30T12:51:42.319Z,22.96
2022-09-30T12:52:42.302Z,22.99
2022-09-30T12:53:42.288Z,22.80
2022-09-30T12:54:42.278Z,22.62
2022-09-30T12:55:42.259Z,22.64
2022-09-30T12:56:42.272Z,22.62
2022-09-30T12:57:42.291Z,22.59
2022-09-30T12:58:42.230Z,22.39
2022-09-30T12:59:42.222Z,22.27
2022-09-30T13:00:42.215Z,22.04
2022-09-30T13:01:42.214Z,21.64
2022-09-30T13:02:42.260Z,21.51
2022-09-30T13:03:42.259Z,21.60
2022-09-30T13:04:42.162Z,21.71
2022-09-30T13:05:42.155Z,21.64
2022-09-30T13:06:42.159Z,21.64
2022-09-30T13:07:42.127Z,21.51
2022-09-30T13:08:42.126Z,21.41
2022-09-30T13:09:42.106Z,21.38